Time;durP1;ratioP1;P1;durP2;ratioP2;P2;SDS_P1;SDS_P2;PMS_P1;PMS_P2;Temp;Humidity;BMP_temperature;BMP_pressure;BME280_temperature;BME280_humidity;BME280_pressure;Samples;Min_cycle;Max_cycle;Signal;HPM_P1;HPM_P2
2023/07/15 00:02:17;;;;;;;11.70;7.10;;;;;;;14.85;72.20;97326.31;107335;1243;97119;-72
2023/07/15 00:04:43;;;;;;;8.80;6.60;;;;;;;14.79;72.47;97327.60;107397;1245;97178;-70
2023/07/15 00:07:10;;;;;;;9.10;6.40;;;;;;;14.77;72.54;97328.92;107386;1246;96889;-72
2023/07/15 00:09:36;;;;;;;10.70;6.70;;;;;;;14.79;72.79;97329.73;107542;1243;95824;-71
2023/07/15 00:12:02;;;;;;;8.10;6.20;;;;;;;14.82;72.57;97331.69;107370;1247;96220;-71
2023/07/15 00:14:29;;;;;;;9.00;6.80;;;;;;;14.81;72.57;97328.73;107529;1240;96036;-71
2023/07/15 00:17:14;;;;;;;7.30;6.50;;;;;;;14.81;72.55;97330.41;107502;1243;96049;-76
2023/07/15 00:20:21;;;;;;;9.60;6.90;;;;;;;14.81;72.55;97329.61;107597;1240;100192;-76
2023/07/15 00:23:33;;;;;;;7.90;6.70;;;;;;;14.79;72.66;97333.73;106265;1263;98960;-78
2023/07/15 00:26:41;;;;;;;8.80;6.90;;;;;;;14.76;72.63;97329.50;105186;1263;97033;-78
2023/07/15 00:29:47;;;;;;;9.70;6.80;;;;;;;14.74;72.85;97329.90;104698;1271;97151;-78
2023/07/15 00:52:21;;;;;;;8.20;6.20;;;;;;;14.75;73.17;97321.48;102679;1283;639833;-78
2023/07/15 00:54:54;;;;;;;8.60;6.40;;;;;;;14.86;73.38;97320.23;104031;1276;111724;-77
2023/07/15 00:57:22;;;;;;;6.80;6.20;;;;;;;14.79;73.61;97316.19;104655;1266;96990;-77
2023/07/15 00:59:58;;;;;;;10.40;5.90;;;;;;;14.74;73.72;97320.38;104822;1260;99778;-77
2023/07/15 01:02:25;;;;;;;8.40;6.10;;;;;;;14.69;73.99;97320.45;104791;1271;100145;-76
2023/07/15 01:04:53;;;;;;;6.80;6.00;;;;;;;14.68;73.93;97319.13;104836;1273;98699;-77
2023/07/15 01:07:21;;;;;;;7.70;6.00;;;;;;;14.70;73.77;97317.21;104873;1258;95881;-77
2023/07/15 01:09:50;;;;;;;8.30;5.90;;;;;;;14.70;73.71;97318.41;104771;1264;97188;-76
2023/07/15 01:12:18;;;;;;;9.70;6.50;;;;;;;14.71;73.52;97309.63;104772;1257;98492;-76
2023/07/15 01:14:47;;;;;;;14.70;6.20;;;;;;;14.71;73.54;97304.57;104818;1260;100104;-76
2023/07/15 01:17:15;;;;;;;12.20;6.00;;;;;;;14.70;73.56;97301.12;105162;1262;99053;-77
2023/07/15 01:19:42;;;;;;;7.50;6.80;;;;;;;14.69;73.42;97300.23;104859;1263;95847;-77
2023/07/15 01:22:11;;;;;;;8.40;6.40;;;;;;;14.66;73.36;97302.89;104760;1260;95852;-77
2023/07/15 01:24:39;;;;;;;6.70;6.00;;;;;;;14.65;73.32;97301.01;105259;1260;100438;-77
2023/07/15 01:27:08;;;;;;;11.40;6.90;;;;;;;14.62;73.37;97299.74;105212;1257;100531;-76
2023/07/15 01:30:16;;;;;;;7.80;6.80;;;;;;;14.60;73.45;97300.10;105218;1260;100099;-78
2023/07/15 01:33:25;;;;;;;7.10;6.40;;;;;;;14.58;73.33;97300.81;104140;1273;95974;-77
2023/07/15 01:36:33;;;;;;;6.90;6.00;;;;;;;14.54;73.40;97297.41;103855;1271;96281;-77
2023/07/15 01:39:36;;;;;;;10.50;6.80;;;;;;;14.51;73.47;97297.82;102928;1282;101889;-81
2023/07/15 02:16:58;;;;;;;12.70;7.20;;;;;;;14.47;74.20;97279.77;105395;1276;95701;-75
2023/07/15 02:19:24;;;;;;;9.00;6.80;;;;;;;14.41;74.20;97279.77;106720;1256;96783;-75
2023/07/15 02:21:50;;;;;;;9.50;6.50;;;;;;;14.27;74.18;97277.18;106840;1260;95910;-75
2023/07/15 02:24:17;;;;;;;8.50;5.90;;;;;;;14.18;74.57;97276.69;106808;1252;95923;-75
2023/07/15 02:26:43;;;;;;;7.10;6.40;;;;;;;14.16;74.86;97274.38;106860;1246;96057;-75
2023/07/15 02:29:49;;;;;;;9.30;6.80;;;;;;;14.18;74.99;97278.33;106834;1251;100208;-71
2023/07/15 02:32:58;;;;;;;8.10;7.00;;;;;;;14.18;75.03;97283.28;105651;1264;95965;-75
2023/07/15 02:36:05;;;;;;;8.20;6.90;;;;;;;14.18;75.12;97292.02;104869;1271;96243;-75
2023/07/15 04:08:53;;;;;;;10.00;7.10;;;;;;;14.87;75.32;97322.33;103978;1275;642610;-74
2023/07/15 04:11:20;;;;;;;14.70;8.50;;;;;;;14.95;75.36;97326.90;105933;1248;974543;-72
2023/07/15 04:13:46;;;;;;;13.20;9.00;;;;;;;14.89;75.32;97328.95;106610;1256;95871;-75
2023/07/15 04:16:53;;;;;;;12.00;8.80;;;;;;;14.84;75.38;97327.88;107730;1248;95796;-80
2023/07/15 06:11:22;;;;;;;9.50;7.20;;;;;;;17.33;76.56;97305.23;105652;1263;95222;-79
2023/07/15 06:13:48;;;;;;;10.50;7.10;;;;;;;17.42;76.58;97300.95;106882;1249;95851;-77
2023/07/15 06:16:15;;;;;;;8.30;7.10;;;;;;;17.52;76.73;97304.06;106933;1252;96135;-84
2023/07/15 06:18:41;;;;;;;10.30;7.20;;;;;;;17.60;76.59;97301.54;107063;1258;95804;-83
2023/07/15 06:21:08;;;;;;;9.60;6.90;;;;;;;17.72;76.85;97304.39;107035;1250;96160;-84
2023/07/15 06:23:34;;;;;;;7.80;6.90;;;;;;;17.81;76.70;97304.75;107065;1254;96780;-85
2023/07/15 06:26:01;;;;;;;8.90;7.30;;;;;;;17.91;76.72;97300.67;107393;1252;97148;-83
2023/07/15 06:28:27;;;;;;;9.90;7.40;;;;;;;18.00;76.68;97303.80;106885;1251;96460;-77
2023/07/15 06:31:06;;;;;;;10.50;6.80;;;;;;;18.11;76.76;97301.48;106980;1251;95857;-76
2023/07/15 06:33:37;;;;;;;8.00;7.20;;;;;;;18.22;76.76;97300.30;107203;1253;97080;-75
2023/07/15 06:36:04;;;;;;;10.40;7.10;;;;;;;18.31;76.57;97296.45;106606;1261;100764;-76
2023/07/15 06:38:30;;;;;;;8.10;6.80;;;;;;;18.41;76.29;97295.20;108131;1239;95807;-76
2023/07/15 06:40:57;;;;;;;8.10;6.50;;;;;;;18.54;76.52;97290.24;108074;1250;96017;-77
2023/07/15 06:43:23;;;;;;;7.50;6.70;;;;;;;18.64;76.15;97289.83;107991;1239;96416;-76
2023/07/15 06:45:49;;;;;;;8.30;6.30;;;;;;;18.74;76.35;97288.52;108058;1239;96110;-86
2023/07/15 06:48:17;;;;;;;7.80;6.80;;;;;;;18.86;76.48;97292.94;107941;1235;101557;-76
2023/07/15 06:51:24;;;;;;;8.20;7.10;;;;;;;18.97;76.63;97287.68;107994;1242;95838;-80
2023/07/15 06:54:31;;;;;;;7.40;6.30;;;;;;;19.09;76.24;97285.58;106304;1250;96128;-82
2023/07/15 06:57:39;;;;;;;6.90;6.20;;;;;;;19.25;76.17;97288.05;105762;1269;97026;-79
2023/07/15 11:26:36;;;;;;;2.10;1.90;;;;;;;34.59;30.48;97155.11;105523;1266;99531;-75
2023/07/15 11:29:13;;;;;;;3.90;2.10;;;;;;;34.56;30.42;97154.48;107165;1250;100140;-73
2023/07/15 11:31:41;;;;;;;2.90;2.20;;;;;;;34.52;29.99;97159.80;106662;1251;98417;-72
2023/07/15 11:34:09;;;;;;;2.60;2.00;;;;;;;34.45;29.99;97157.19;106903;1244;96820;-73
2023/07/15 11:36:38;;;;;;;3.00;1.80;;;;;;;34.38;29.69;97147.23;106496;1253;96651;-72
2023/07/15 11:39:06;;;;;;;2.50;1.80;;;;;;;34.38;29.60;97145.36;106197;1253;99757;-77
2023/07/15 11:41:33;;;;;;;2.00;1.90;;;;;;;34.29;29.21;97148.48;106588;1248;100219;-77
2023/07/15 11:44:00;;;;;;;4.80;2.40;;;;;;;34.22;29.36;97142.73;106454;1254;99377;-79
2023/07/15 11:46:29;;;;;;;2.40;2.00;;;;;;;34.25;29.96;97143.33;105959;1254;96240;-74
2023/07/15 11:48:59;;;;;;;3.40;2.10;;;;;;;34.23;29.31;97130.27;105814;1256;96001;-89
2023/07/15 11:51:25;;;;;;;3.00;1.80;;;;;;;34.21;29.27;97130.45;105871;1258;99102;-88
2023/07/15 11:53:54;;;;;;;2.30;2.10;;;;;;;34.21;28.68;97126.92;105773;1257;97327;-86
2023/07/15 11:56:36;;;;;;;2.20;1.90;;;;;;;34.18;28.59;97126.66;105798;1261;98884;-85
2023/07/15 11:59:05;;;;;;;3.50;2.00;;;;;;;34.16;28.82;97125.56;105770;1264;96656;-84
2023/07/15 12:01:32;;;;;;;3.30;2.20;;;;;;;34.17;29.31;97126.79;105961;1256;97136;-85
2023/07/15 12:03:58;;;;;;;3.20;2.00;;;;;;;34.23;29.25;97129.79;105809;1257;97435;-77
2023/07/15 12:06:28;;;;;;;2.50;2.30;;;;;;;34.33;29.35;97122.79;105466;1262;96940;-75
2023/07/15 12:09:15;;;;;;;4.40;2.30;;;;;;;34.42;29.23;97121.66;105732;1259;99898;-77
2023/07/15 12:11:42;;;;;;;2.10;1.90;;;;;;;34.49;29.17;97119.15;106434;1250;97361;-78
2023/07/15 12:14:08;;;;;;;2.70;2.20;;;;;;;34.51;28.92;97120.07;106453;1253;96738;-77
2023/07/15 12:16:36;;;;;;;3.70;2.20;;;;;;;34.51;29.07;97116.23;106526;1253;96656;-78
2023/07/15 12:19:04;;;;;;;2.10;2.00;;;;;;;34.56;29.15;97110.14;106977;1248;97913;-78
2023/07/15 12:21:31;;;;;;;3.90;2.10;;;;;;;34.57;28.43;97106.63;107752;1242;96725;-78
2023/07/15 12:23:58;;;;;;;3.60;2.10;;;;;;;34.56;28.06;97108.60;107758;1242;97786;-82
2023/07/15 12:26:24;;;;;;;4.20;2.10;;;;;;;34.58;28.07;97104.41;107584;1242;96732;-80
2023/07/15 12:28:51;;;;;;;2.10;1.90;;;;;;;34.63;28.24;97108.10;107862;1241;98005;-80
2023/07/15 12:31:18;;;;;;;2.20;2.00;;;;;;;34.63;27.91;97104.50;107835;1247;96594;-79
2023/07/15 12:33:45;;;;;;;3.20;2.30;;;;;;;34.57;27.79;97100.46;107770;1241;96645;-74
2023/07/15 12:36:14;;;;;;;2.20;2.00;;;;;;;34.52;28.31;97102.39;107890;1240;96635;-75
2023/07/15 12:38:41;;;;;;;2.90;1.90;;;;;;;34.59;28.40;97099.54;107848;1238;101190;-73
2023/07/15 12:41:08;;;;;;;2.60;2.00;;;;;;;34.63;28.61;97098.25;107666;1241;97457;-74
2023/07/15 12:43:36;;;;;;;2.40;1.90;;;;;;;34.68;28.60;97098.08;107524;1240;97024;-76
2023/07/15 12:46:03;;;;;;;3.70;2.00;;;;;;;34.68;28.00;97100.55;107515;1243;96491;-82
2023/07/15 12:48:30;;;;;;;3.10;2.30;;;;;;;34.60;28.01;97100.92;107312;1244;97145;-80
2023/07/15 12:51:00;;;;;;;2.30;2.10;;;;;;;34.58;28.26;97099.92;107290;1242;97989;-77
2023/07/15 12:53:29;;;;;;;2.90;2.30;;;;;;;34.56;27.97;97090.84;107325;1249;100300;-74
2023/07/15 12:55:56;;;;;;;4.90;2.00;;;;;;;34.58;28.06;97090.32;107144;1246;99227;-73
2023/07/15 12:58:23;;;;;;;2.40;2.10;;;;;;;34.58;27.56;97087.27;107269;1245;97496;-74
2023/07/15 13:00:50;;;;;;;3.00;2.00;;;;;;;34.60;27.60;97089.30;106952;1250;98122;-82
2023/07/15 13:03:17;;;;;;;4.80;2.30;;;;;;;34.61;27.81;97085.96;107134;1247;97563;-83
2023/07/15 13:05:43;;;;;;;3.80;1.80;;;;;;;34.68;28.78;97083.67;106964;1245;97308;-84
2023/07/15 13:08:10;;;;;;;2.10;1.90;;;;;;;34.73;29.15;97081.36;106957;1248;96738;-82
2023/07/15 13:10:37;;;;;;;6.40;2.30;;;;;;;34.72;28.24;97080.04;106952;1250;97091;-86
2023/07/15 13:13:03;;;;;;;2.30;2.10;;;;;;;34.77;28.10;97077.58;107086;1247;97922;-85
2023/07/15 13:15:30;;;;;;;2.30;2.10;;;;;;;34.70;27.97;97080.01;107157;1241;96678;-76
2023/07/15 13:17:56;;;;;;;3.00;2.30;;;;;;;34.68;28.18;97081.11;107311;1244;97775;-76
2023/07/15 13:20:22;;;;;;;3.30;2.20;;;;;;;34.72;28.11;97071.71;107468;1239;96803;-82
2023/07/15 13:22:49;;;;;;;2.40;2.00;;;;;;;34.80;27.78;97068.73;107514;1239;96753;-81
2023/07/15 13:25:15;;;;;;;5.10;2.50;;;;;;;34.81;28.10;97070.60;107524;1252;97102;-80
2023/07/15 13:27:41;;;;;;;3.10;2.30;;;;;;;34.81;27.85;97068.67;107520;1251;97443;-82
2023/07/15 13:30:10;;;;;;;2.60;1.90;;;;;;;34.72;27.67;97071.23;107512;1244;97870;-83
2023/07/15 13:32:36;;;;;;;3.20;2.20;;;;;;;34.72;27.32;97072.04;107973;1241;101058;-77
2023/07/15 13:35:02;;;;;;;2.40;2.00;;;;;;;34.68;27.25;97076.20;108041;1243;96540;-79
2023/07/15 13:37:29;;;;;;;3.00;2.40;;;;;;;34.71;27.23;97078.74;108009;1240;97699;-77
2023/07/15 13:39:55;;;;;;;4.40;2.30;;;;;;;34.76;27.15;97080.29;108206;1238;96625;-77
2023/07/15 13:42:22;;;;;;;4.30;2.10;;;;;;;34.77;26.97;97073.66;107966;1246;111739;-77
2023/07/15 13:44:50;;;;;;;2.40;2.00;;;;;;;34.79;27.53;97071.45;107974;1233;97798;-80
2023/07/15 13:47:16;;;;;;;2.90;2.30;;;;;;;34.84;27.83;97073.52;107656;1248;97470;-79
2023/07/15 13:49:43;;;;;;;2.60;2.40;;;;;;;34.85;27.81;97071.63;108041;1245;96785;-78
2023/07/15 13:52:09;;;;;;;2.80;2.40;;;;;;;34.82;27.41;97063.58;107822;1241;96616;-77
2023/07/15 13:54:36;;;;;;;3.00;2.20;;;;;;;34.81;27.40;97065.38;108083;1245;97093;-79
2023/07/15 13:57:03;;;;;;;3.20;2.50;;;;;;;34.74;27.21;97063.02;108068;1243;99611;-78
2023/07/15 13:59:29;;;;;;;3.50;2.40;;;;;;;34.71;27.45;97059.75;108116;1238;96548;-79
2023/07/15 14:02:04;;;;;;;2.50;2.30;;;;;;;34.68;27.91;97055.55;108073;1245;97823;-74
2023/07/15 14:04:38;;;;;;;2.50;2.00;;;;;;;34.64;28.00;97052.53;107176;1254;101155;-74
2023/07/15 14:07:20;;;;;;;4.40;2.70;;;;;;;34.64;27.99;97055.17;106976;1248;99895;-74
2023/07/15 14:09:46;;;;;;;;;;;;;;;34.74;27.92;97052.13;107079;1257;98780;-74
2023/07/15 14:12:12;;;;;;;2.60;2.40;;;;;;;34.80;28.09;97058.95;107094;1258;96752;-74
2023/07/15 14:14:41;;;;;;;3.10;2.80;;;;;;;34.79;27.70;97051.25;107012;1257;96605;-73
2023/07/15 14:17:08;;;;;;;4.10;2.50;;;;;;;34.87;27.86;97052.76;107085;1252;97992;-73
2023/07/15 14:19:34;;;;;;;2.40;2.20;;;;;;;34.91;27.53;97049.98;107075;1259;96727;-74
2023/07/15 14:22:02;;;;;;;3.40;2.50;;;;;;;34.92;27.88;97050.09;106701;1260;97551;-79
2023/07/15 14:24:29;;;;;;;3.10;2.40;;;;;;;34.88;28.31;97045.41;106806;1251;97050;-84
2023/07/15 14:26:55;;;;;;;3.50;2.60;;;;;;;34.92;27.71;97043.92;106904;1254;98111;-82
2023/07/15 14:29:22;;;;;;;2.70;2.50;;;;;;;34.98;27.81;97044.19;107008;1254;100244;-80
2023/07/15 14:31:48;;;;;;;5.40;2.30;;;;;;;34.96;27.51;97040.94;107786;1241;97546;-84
2023/07/15 14:34:14;;;;;;;2.40;2.20;;;;;;;34.95;27.68;97042.52;107217;1242;96714;-82
2023/07/15 14:36:41;;;;;;;2.40;2.20;;;;;;;34.99;27.52;97044.04;107269;1256;96805;-80
2023/07/15 14:39:08;;;;;;;2.70;2.50;;;;;;;35.03;27.34;97047.20;107394;1249;100520;-81
2023/07/15 14:41:37;;;;;;;6.80;3.40;;;;;;;35.02;27.24;97045.11;107334;1245;96981;-82
2023/07/15 14:44:04;;;;;;;3.30;3.00;;;;;;;34.96;27.32;97048.31;107603;1244;96562;-83
2023/07/15 14:46:31;;;;;;;2.60;2.20;;;;;;;34.91;27.47;97045.27;107499;1238;97081;-76
2023/07/15 14:48:57;;;;;;;3.70;3.10;;;;;;;34.60;27.60;97041.98;107358;1241;96722;-76
2023/07/15 14:51:23;;;;;;;2.80;2.30;;;;;;;34.41;27.85;97038.38;107483;1241;96590;-81
2023/07/15 14:53:50;;;;;;;4.70;3.10;;;;;;;34.32;27.71;97040.08;107804;1235;97547;-78
2023/07/15 14:56:16;;;;;;;3.20;2.50;;;;;;;34.34;28.03;97038.67;108110;1235;97425;-76
2023/07/15 14:58:42;;;;;;;2.80;2.50;;;;;;;34.39;28.52;97031.41;107948;1237;96871;-76
2023/07/15 15:01:08;;;;;;;4.00;2.70;;;;;;;34.45;29.32;97032.29;108033;1245;96553;-81
2023/07/15 15:03:35;;;;;;;4.50;2.70;;;;;;;34.51;29.50;97030.55;108115;1247;96561;-81
2023/07/15 15:06:01;;;;;;;5.00;2.50;;;;;;;34.54;29.07;97032.44;107961;1237;98090;-80
2023/07/15 15:08:27;;;;;;;3.00;2.30;;;;;;;34.53;28.61;97029.38;107964;1245;96555;-78
2023/07/15 15:10:58;;;;;;;3.40;2.40;;;;;;;34.48;28.56;97029.23;108060;1238;97477;-75
2023/07/15 15:13:27;;;;;;;2.20;2.10;;;;;;;34.38;28.35;97021.60;107639;1241;98963;-75
2023/07/15 15:16:02;;;;;;;4.40;2.50;;;;;;;34.29;28.46;97023.79;107650;1240;97797;-86
2023/07/15 15:18:28;;;;;;;8.00;2.80;;;;;;;34.24;28.62;97020.95;107735;1241;97043;-84
2023/07/15 15:20:55;;;;;;;3.50;2.40;;;;;;;34.18;28.87;97020.61;107750;1243;96985;-90
2023/07/15 15:23:23;;;;;;;3.10;2.60;;;;;;;34.15;29.88;97018.48;107741;1250;96812;-86
2023/07/15 15:25:58;;;;;;;2.90;2.70;;;;;;;34.15;29.62;97012.09;107379;1249;97064;-75
2023/07/15 15:28:30;;;;;;;4.60;2.50;;;;;;;34.16;29.45;97009.95;106818;1248;97567;-74
2023/07/15 15:30:56;;;;;;;2.70;2.30;;;;;;;34.17;29.06;97012.43;106594;1253;97177;-87
2023/07/15 15:33:31;;;;;;;2.70;2.50;;;;;;;34.09;29.42;97011.48;106733;1254;96763;-88
2023/07/15 15:35:58;;;;;;;3.30;2.70;;;;;;;34.01;29.29;97005.77;106583;1253;100437;-86
2023/07/15 15:38:24;;;;;;;5.10;2.70;;;;;;;33.95;29.30;97004.05;106531;1252;97580;-87
2023/07/15 15:40:51;;;;;;;3.10;2.60;;;;;;;33.95;29.94;97012.05;106612;1254;96869;-76
2023/07/15 15:43:17;;;;;;;3.20;2.90;;;;;;;33.97;29.60;97008.66;106609;1251;97924;-76
2023/07/15 15:45:43;;;;;;;3.40;2.60;;;;;;;33.98;29.67;97005.79;106833;1250;101381;-80
2023/07/15 15:48:10;;;;;;;2.70;2.50;;;;;;;33.92;29.51;97003.63;106865;1251;96794;-80
2023/07/15 15:50:36;;;;;;;3.60;2.50;;;;;;;33.84;29.44;97000.01;106850;1249;97499;-79
2023/07/15 15:53:02;;;;;;;3.30;3.00;;;;;;;33.79;29.49;96998.25;106928;1250;97144;-82
2023/07/15 15:55:28;;;;;;;2.70;2.50;;;;;;;33.74;29.37;96998.54;106758;1248;101236;-80
2023/07/15 15:57:55;;;;;;;4.60;3.10;;;;;;;33.74;29.56;96996.20;106866;1258;97193;-81
2023/07/15 16:00:23;;;;;;;3.60;2.60;;;;;;;33.72;29.62;96995.45;107148;1245;97721;-83
2023/07/15 16:02:51;;;;;;;4.50;2.80;;;;;;;33.71;29.34;96995.19;107466;1240;97152;-79
2023/07/15 16:05:18;;;;;;;4.10;2.70;;;;;;;33.67;29.25;96993.77;108019;1237;97781;-80
2023/07/15 16:07:44;;;;;;;2.70;2.40;;;;;;;33.60;29.30;96994.59;107948;1237;97455;-79
2023/07/15 16:10:30;;;;;;;2.90;2.60;;;;;;;33.54;29.72;96996.96;107923;1244;97764;-85
2023/07/15 16:13:00;;;;;;;4.60;2.30;;;;;;;33.49;29.63;97002.29;107392;1245;97144;-84
2023/07/15 16:15:29;;;;;;;3.60;2.70;;;;;;;33.43;29.31;97006.26;107460;1245;101064;-83
2023/07/15 16:18:01;;;;;;;4.20;2.50;;;;;;;33.36;29.42;97002.27;107285;1252;100257;-89
2023/07/15 16:20:31;;;;;;;4.00;2.80;;;;;;;33.31;30.50;97006.26;107386;1244;98783;-84
2023/07/15 16:23:00;;;;;;;3.60;2.40;;;;;;;33.20;31.25;97003.37;107407;1244;97910;-88
2023/07/15 16:25:38;;;;;;;3.10;2.80;;;;;;;33.14;30.76;97005.86;107383;1244;97170;-88
2023/07/15 16:28:06;;;;;;;4.10;3.10;;;;;;;33.10;30.52;97007.14;107378;1239;101225;-85
2023/07/15 16:30:34;;;;;;;9.30;3.20;;;;;;;33.09;30.38;97006.08;107430;1252;97473;-81
2023/07/15 16:33:00;;;;;;;5.50;3.30;;;;;;;33.04;30.36;97005.11;107528;1242;100596;-83
2023/07/15 16:35:30;;;;;;;2.70;2.50;;;;;;;33.01;30.66;97006.71;107506;1242;97781;-83
2023/07/15 16:37:57;;;;;;;2.90;2.70;;;;;;;32.95;30.46;97009.38;107529;1243;96978;-83
2023/07/15 16:40:32;;;;;;;3.10;2.80;;;;;;;32.89;30.92;97006.38;107476;1242;98075;-82
2023/07/15 16:43:05;;;;;;;2.70;2.50;;;;;;;32.83;31.46;97003.38;107172;1254;100377;-82
2023/07/15 16:45:35;;;;;;;4.20;3.80;;;;;;;32.73;31.03;97000.65;107479;1241;98504;-88
2023/07/15 16:48:14;;;;;;;5.00;3.50;;;;;;;32.65;31.04;97001.34;107555;1241;96600;-74
2023/07/15 16:51:01;;;;;;;5.40;3.60;;;;;;;32.60;31.54;97002.50;107543;1239;97066;-73
2023/07/15 16:53:40;;;;;;;3.70;3.30;;;;;;;32.54;31.64;97000.79;107574;1244;100847;-74
2023/07/15 16:56:25;;;;;;;5.00;2.90;;;;;;;32.48;31.74;97003.27;107539;1238;100225;-74
2023/07/15 16:59:12;;;;;;;3.70;3.20;;;;;;;32.42;32.39;97002.80;107464;1244;98525;-73
2023/07/15 17:01:41;;;;;;;4.20;2.90;;;;;;;32.29;33.35;97006.88;107364;1245;96807;-74
2023/07/15 17:04:18;;;;;;;4.60;2.90;;;;;;;32.20;33.67;97006.26;106997;1248;97140;-74
2023/07/15 17:06:48;;;;;;;3.00;2.70;;;;;;;32.10;34.19;97006.48;107178;1250;101100;-85
2023/07/15 17:09:14;;;;;;;4.10;3.20;;;;;;;32.00;34.49;97007.24;108774;1245;100255;-82
2023/07/15 17:11:40;;;;;;;7.70;3.20;;;;;;;31.87;35.45;97008.34;110167;1246;94425;-81
2023/07/15 17:14:07;;;;;;;3.70;2.80;;;;;;;31.70;35.72;97002.88;106996;1250;96639;-81
2023/07/15 17:16:33;;;;;;;4.70;3.00;;;;;;;31.54;36.93;97007.13;107362;1250;97074;-81
2023/07/15 17:18:59;;;;;;;4.00;3.20;;;;;;;31.36;37.75;97010.69;107277;1250;101285;-80
2023/07/15 17:21:27;;;;;;;5.90;3.40;;;;;;;31.19;38.38;97014.02;107097;1251;97675;-81
2023/07/15 17:23:53;;;;;;;3.50;3.20;;;;;;;31.01;39.00;97017.77;106826;1251;96548;-81
2023/07/15 17:26:19;;;;;;;6.50;2.90;;;;;;;30.86;40.14;97013.59;106752;1251;97836;-81
2023/07/15 17:28:47;;;;;;;4.70;3.20;;;;;;;30.71;40.89;97014.16;107023;1243;97695;-75
2023/07/15 17:31:14;;;;;;;7.90;3.40;;;;;;;30.57;41.27;97011.16;107237;1248;99840;-76
2023/07/15 17:33:40;;;;;;;7.20;3.40;;;;;;;30.44;41.82;97006.77;107462;1241;96632;-75
2023/07/15 17:36:06;;;;;;;6.70;3.90;;;;;;;30.30;41.96;97002.11;107869;1241;97369;-76
2023/07/15 17:39:15;;;;;;;4.20;3.80;;;;;;;30.15;41.43;97003.21;108145;1237;96795;-90
2023/07/15 17:42:02;;;;;;;6.80;5.50;;;;;;;29.98;42.01;97002.23;108117;1237;98730;-83
2023/07/15 17:44:51;;;;;;;10.40;6.40;;;;;;;29.86;42.03;97001.02;107924;1235;97779;-84
2023/07/15 17:47:43;;;;;;;6.10;5.50;;;;;;;29.70;42.28;97000.46;107561;1239;97931;-72
2023/07/15 17:50:39;;;;;;;7.80;4.40;;;;;;;29.52;42.73;97001.45;107412;1244;101105;-73
2023/07/15 17:53:39;;;;;;;7.80;6.00;;;;;;;29.31;43.50;96998.50;106727;1260;100294;-73
2023/07/15 17:56:44;;;;;;;9.60;7.00;;;;;;;29.15;43.41;97000.45;106968;1251;98887;-73
2023/07/15 17:59:34;;;;;;;7.20;5.20;;;;;;;28.95;44.10;97000.99;106968;1246;97711;-73
2023/07/15 18:02:23;;;;;;;9.70;4.90;;;;;;;28.67;44.46;97002.23;107032;1246;97067;-76
2023/07/15 18:05:20;;;;;;;10.60;5.30;;;;;;;28.45;44.94;97006.82;106059;1265;101150;-73
2023/07/15 18:08:28;;;;;;;9.50;5.10;;;;;;;28.27;44.76;97005.55;106501;1254;100052;-72
2023/07/15 18:11:23;;;;;;;5.70;5.00;;;;;;;28.14;44.75;97009.10;105589;1267;98511;-72
2023/07/15 18:14:23;;;;;;;8.00;5.00;;;;;;;28.04;44.91;97012.90;105629;1263;96675;-72
2023/07/15 18:16:49;;;;;;;7.40;5.90;;;;;;;27.87;44.85;97011.02;105247;1266;97202;-83
2023/07/15 18:19:15;;;;;;;9.00;5.50;;;;;;;27.74;44.85;97008.87;105234;1266;96647;-88
2023/07/15 18:21:42;;;;;;;7.10;4.40;;;;;;;27.43;44.70;97013.70;105165;1274;97841;-89
2023/07/15 18:24:08;;;;;;;6.20;5.50;;;;;;;27.11;45.36;97022.39;105153;1266;96643;-89
2023/07/15 18:26:34;;;;;;;10.50;6.10;;;;;;;26.98;45.93;97022.42;105213;1266;97174;-91
2023/07/15 18:29:01;;;;;;;8.70;6.40;;;;;;;26.90;46.19;97022.77;105174;1265;97836;-88
2023/07/15 18:31:27;;;;;;;11.60;6.50;;;;;;;26.78;46.21;97021.67;105918;1268;96768;-87
2023/07/15 18:33:53;;;;;;;12.60;6.40;;;;;;;26.69;46.37;97030.89;105873;1260;98030;-82
2023/07/15 18:36:20;;;;;;;9.90;7.10;;;;;;;26.58;46.55;97032.02;105770;1265;97114;-82
2023/07/15 18:38:47;;;;;;;11.00;6.50;;;;;;;26.46;46.83;97033.20;105745;1258;97653;-82
2023/07/15 18:41:13;;;;;;;8.30;5.70;;;;;;;26.28;47.46;97033.95;105833;1266;97603;-82
2023/07/15 18:43:40;;;;;;;9.50;6.20;;;;;;;26.06;48.06;97041.48;106627;1251;97013;-81
2023/07/15 18:46:47;;;;;;;8.90;7.10;;;;;;;25.90;48.29;97044.19;106663;1254;96796;-73
2023/07/15 18:49:53;;;;;;;10.00;6.70;;;;;;;25.73;48.81;97049.92;106012;1254;101147;-73
2023/07/15 18:53:00;;;;;;;14.70;8.70;;;;;;;25.48;49.38;97054.52;105725;1270;100356;-73
2023/07/15 18:56:07;;;;;;;18.30;11.50;;;;;;;25.25;49.71;97055.39;105579;1263;99003;-73
2023/07/15 18:59:15;;;;;;;15.80;11.10;;;;;;;24.94;50.07;97059.41;105306;1266;96649;-74
2023/07/15 19:31:16;;;;;;;12.00;8.30;;;;;;;23.92;53.75;97076.80;105313;1266;94200;-74
2023/07/15 19:33:42;;;;;;;11.20;8.40;;;;;;;23.85;53.97;97076.05;107143;1248;99314;-71
2023/07/15 19:36:09;;;;;;;12.50;9.00;;;;;;;23.77;54.05;97072.94;107037;1249;95875;-75
2023/07/15 19:38:35;;;;;;;14.40;9.20;;;;;;;23.63;54.34;97076.27;106904;1250;96781;-74
2023/07/15 19:41:01;;;;;;;13.20;8.30;;;;;;;23.49;54.70;97077.17;107507;1243;95857;-74
2023/07/15 19:43:28;;;;;;;15.50;8.10;;;;;;;23.42;54.88;97075.41;107717;1243;99219;-75
2023/07/15 19:45:54;;;;;;;9.70;7.10;;;;;;;23.27;54.80;97075.33;107546;1238;95823;-75
2023/07/15 19:49:01;;;;;;;7.80;6.80;;;;;;;23.08;55.11;97077.02;107546;1244;97089;-72
2023/07/15 19:51:48;;;;;;;8.30;6.70;;;;;;;22.89;55.47;97083.70;107117;1248;96876;-82
2023/07/15 19:54:37;;;;;;;8.70;7.30;;;;;;;22.72;55.72;97085.91;106019;1259;96681;-81
2023/07/15 19:57:37;;;;;;;9.60;7.40;;;;;;;22.57;55.91;97085.88;105464;1263;100090;-81
2023/07/15 20:00:30;;;;;;;8.10;7.20;;;;;;;22.47;56.45;97086.95;107229;1256;100291;-81
2023/07/15 20:03:37;;;;;;;11.10;7.20;;;;;;;22.38;56.63;97088.71;105941;1264;98607;-75
2023/07/15 20:06:53;;;;;;;9.60;7.60;;;;;;;22.26;56.90;97093.92;104469;1276;96029;-74
2023/07/15 20:18:52;;;;;;;9.60;7.70;;;;;;;21.90;57.89;97107.08;102026;1295;635941;-89
2023/07/15 20:21:19;;;;;;;12.50;7.20;;;;;;;21.85;58.43;97107.35;104647;1282;96761;-89
2023/07/15 20:23:47;;;;;;;9.00;7.10;;;;;;;21.88;58.59;97108.84;104527;1269;96893;-88
2023/07/15 20:26:15;;;;;;;11.30;7.90;;;;;;;21.93;58.63;97115.34;104499;1280;98342;-88
2023/07/15 20:28:42;;;;;;;22.80;16.90;;;;;;;21.85;58.49;97118.60;104400;1279;101194;-90
2023/07/15 20:31:10;;;;;;;43.30;31.90;;;;;;;21.68;58.54;97117.12;104717;1270;100058;-90
2023/07/15 20:33:38;;;;;;;40.70;34.90;;;;;;;21.57;58.86;97118.88;104839;1260;151802;-90
2023/07/15 20:36:05;;;;;;;24.50;20.30;;;;;;;21.46;58.94;97118.52;105183;1261;95881;-90
2023/07/15 20:42:05;;;;;;;15.90;12.80;;;;;;;21.28;59.45;97113.47;101552;1298;637269;-92
2023/07/15 20:45:14;;;;;;;12.10;8.60;;;;;;;21.19;59.83;97119.39;104110;1270;95898;-90
2023/07/15 23:07:40;;;;;;;9.50;7.30;;;;;;;19.21;65.62;97156.05;101404;1298;638991;-70
2023/07/15 23:10:48;;;;;;;11.30;7.30;;;;;;;19.02;65.97;97158.05;102880;1286;96094;-78
2023/07/15 23:42:07;;;;;;;9.60;7.30;;;;;;;18.51;68.53;97124.37;105354;1264;97184;-81
2023/07/15 23:44:34;;;;;;;10.60;7.00;;;;;;;18.48;68.57;97123.09;107034;1251;101100;-80
2023/07/15 23:47:00;;;;;;;9.10;7.30;;;;;;;18.44;68.52;97121.67;106917;1255;96536;-86
2023/07/15 23:49:26;;;;;;;11.30;8.00;;;;;;;18.39;68.74;97121.48;106900;1251;95932;-85
2023/07/15 23:51:53;;;;;;;10.80;7.50;;;;;;;18.31;68.76;97120.27;106975;1255;95927;-87
2023/07/15 23:54:19;;;;;;;8.60;7.70;;;;;;;18.27;68.85;97118.92;106974;1246;101362;-75
2023/07/15 23:56:45;;;;;;;9.30;7.20;;;;;;;18.22;68.84;97113.52;106942;1251;96868;-74
2023/07/15 23:59:12;;;;;;;12.40;7.60;;;;;;;18.18;69.03;97105.79;106833;1248;96132;-73
